Terminal Aerodrome Forecast
Issued by NWS Cleveland, OH

Home | Current Version | Previous Version | Text Only | Print | Product List | Glossary On
Versions: 1 2 3 4 5 6 7 8 9 10 11 12 13 14 15 16 17 18 19 20 21 22
353
FTUS41 KCLE 050540
TAFMFD
TAF
KMFD 050540Z 0506/0606 30006KT 4SM -SHRA BR BKN008 OVC015
      TEMPO 0506/0508 SCT008
     FM051000 35010KT 4SM BR BKN008 OVC015
     FM051500 36010KT P6SM SCT008 OVC015
     FM051900 01012G22KT P6SM SCT015 OVC035
     FM060000 36010KT P6SM BKN050=

USA.gov is the U.S. government's official web portal to all federal, state and local government web resources and services.